Terminal Aerodrome Forecast
Issued by NWS Charleston, WV

Current Version | Previous Version | Graphics & Text | Print | Product List | Glossary Off
Versions: 1 2 3 4 5 6 7 8 9 10 11 12 13 14 15 16 17 18 19 20 21 22

000
FTUS41 KRLX 010900 AAA
TAFEKN
TAF AMD
KEKN 010906Z 0109/0206 00000KT 4SM -RA BR OVC010
      TEMPO 0109/0112 3SM -RASN BR BKN008
     FM011200 01006KT 4SM -RADZ BR OVC012
     FM012200 33009G15KT 5SM -SHRASN BR OVC015
     FM020000 33009G15KT 6SM -SHSN BR OVC015
     FM020500 32006KT 5SM -SHSN BR OVC020=

USA.gov is the U.S. government's official web portal to all federal, state and local government web resources and services.